Front Circassia — V7JX6 — position and weather

sailwx.info

Track history (hours):
 
Tides and Currents Weather Stations Pressure Air Temp Water Temp Dewpoint Dewpoint Depression Visibility Wind Speed Wind Dir Waves Ship Positions

Front Circassia

Last reported at 2017-Sep-07 23:36 UTC. Time now 2017-Sep-19 20:52 UTC.
Position N 01°17' E 103°21'.
Warning: this ship's position is 11 days out of date.

Length 333 m; draft 11.6 m.

Type: Tanker. MMSI: 538002584.

Date/timePositionNaut miles runAvg speedWind from/ knotsBaromVisibWave heightAir tempDewpointWater temp
2017-Sep-07 23:36N 01°17' E 103°21'214.2
2017-Sep-07 23:28N 01°16' E 103°22'714.1
2017-Sep-07 23:00N 01°14' E 103°28'713.7
2017-Sep-07 22:30N 01°12' E 103°35'612.6
2017-Sep-07 22:00N 01°10' E 103°41'510.1
2017-Sep-07 21:30N 01°09' E 103°46'5 9.3
2017-Sep-07 21:00N 01°11' E 103°50'3 6.9
2017-Sep-07 20:30N 01°13' E 103°53'5 9.6
2017-Sep-07 20:00N 01°15' E 103°58'510.9
2017-Sep-07 19:30N 01°16' E 104°03'  
Track history (hours):
 
Tides and Currents Weather Stations Pressure Air Temp Water Temp Dewpoint Dewpoint Depression Visibility Wind Speed Wind Dir Waves Ship Positions

Front Circassia

Last reported at 2017-Sep-07 23:36 UTC. Time now 2017-Sep-19 20:52 UTC.
Position N 01°17' E 103°21'.
Warning: this ship's position is 11 days out of date.

Length 333 m; draft 11.6 m.

Type: Tanker. MMSI: 538002584.

Date/timePositionNaut miles runAvg speedWind from/ knotsBaromVisibWave heightAir tempDewpointWater temp
2017-Sep-07 23:36N 01°17' E 103°21'214.2
2017-Sep-07 23:28N 01°16' E 103°22'714.1
2017-Sep-07 23:00N 01°14' E 103°28'713.7
2017-Sep-07 22:30N 01°12' E 103°35'612.6
2017-Sep-07 22:00N 01°10' E 103°41'510.1
2017-Sep-07 21:30N 01°09' E 103°46'5 9.3
2017-Sep-07 21:00N 01°11' E 103°50'3 6.9
2017-Sep-07 20:30N 01°13' E 103°53'5 9.6
2017-Sep-07 20:00N 01°15' E 103°58'510.9
2017-Sep-07 19:30N 01°16' E 104°03'  

Dump ship's entire track history